createdAt,value
2022-12-01T00:01:16.049Z,99853.84
2022-12-01T00:03:46.679Z,99849.53
2022-12-01T00:06:19.380Z,99835.16
2022-12-01T00:09:11.449Z,99861.53
2022-12-01T00:11:43.552Z,99861.91
2022-12-01T00:14:14.497Z,99854.47
2022-12-01T00:16:45.684Z,99851.66
2022-12-01T00:19:19.899Z,99856.72
2022-12-01T00:21:49.941Z,99861.84
2022-12-01T00:24:23.248Z,99850.63
2022-12-01T00:26:53.563Z,99865.53
2022-12-01T00:29:27.308Z,99869.00
2022-12-01T00:31:57.381Z,99863.72
2022-12-01T00:34:29.241Z,99871.19
2022-12-01T00:36:59.362Z,99873.19
2022-12-01T00:39:30.193Z,99882.31
2022-12-01T00:42:00.253Z,99889.19
2022-12-01T00:44:30.749Z,99900.06
2022-12-01T00:47:00.564Z,99908.78
2022-12-01T00:49:30.595Z,99905.50
2022-12-01T00:52:04.284Z,99917.84
2022-12-01T00:54:34.898Z,99923.47
2022-12-01T00:57:05.822Z,99934.38
2022-12-01T00:59:36.866Z,99933.44
2022-12-01T01:02:10.012Z,99944.34
2022-12-01T01:04:40.135Z,99943.41
2022-12-01T01:07:10.589Z,99939.97
2022-12-01T01:09:40.785Z,99936.50
2022-12-01T01:12:11.392Z,99936.00
2022-12-01T01:14:41.554Z,99932.19
2022-12-01T01:17:12.055Z,99931.25
2022-12-01T01:19:42.107Z,99927.28
2022-12-01T01:22:12.650Z,99916.53
2022-12-01T01:24:43.468Z,99919.13
2022-12-01T01:27:14.013Z,99932.00
2022-12-01T01:29:44.139Z,99919.13
2022-12-01T01:32:14.497Z,99921.97
2022-12-01T01:34:44.361Z,99927.25
2022-12-01T01:37:14.753Z,99936.69
2022-12-01T01:39:44.916Z,99946.31
2022-12-01T01:42:16.824Z,99940.59
2022-12-01T01:44:51.902Z,99955.22
2022-12-01T01:47:42.429Z,99959.84
2022-12-01T01:50:17.042Z,99964.34
2022-12-01T01:52:53.263Z,99962.72
2022-12-01T01:55:23.362Z,99973.28
2022-12-01T01:57:55.786Z,99969.47
2022-12-01T02:00:26.149Z,99968.59
2022-12-01T02:02:58.937Z,99971.50
2022-12-01T02:05:32.991Z,99961.75
2022-12-01T02:08:05.662Z,99973.75
2022-12-01T02:10:53.343Z,99949.44
2022-12-01T02:13:54.108Z,99979.19
2022-12-01T02:16:46.202Z,99973.28
2022-12-01T02:19:47.712Z,99958.25
2022-12-01T02:22:37.926Z,99956.25
2022-12-01T02:25:50.537Z,99957.28
2022-12-01T02:28:35.347Z,99942.03
2022-12-01T02:31:28.341Z,99955.16
2022-12-01T02:34:07.063Z,99952.13
2022-12-01T02:36:47.784Z,99953.31
2022-12-01T02:39:45.974Z,99955.50
2022-12-01T02:42:40.626Z,99954.41
2022-12-01T02:45:15.846Z,99939.91
2022-12-01T02:47:47.323Z,99953.72
2022-12-01T02:50:18.054Z,99944.25
2022-12-01T02:52:49.129Z,99952.44
2022-12-01T02:55:19.118Z,99945.34
2022-12-01T02:57:49.886Z,99943.72
2022-12-01T03:00:20.355Z,99946.72
2022-12-01T03:02:56.966Z,99949.59
2022-12-01T03:05:49.202Z,99962.88
2022-12-01T03:08:25.318Z,99954.69
2022-12-01T03:10:56.748Z,99952.28
2022-12-01T03:14:00.095Z,99963.31
2022-12-01T03:16:44.370Z,99963.50
2022-12-01T03:19:16.902Z,99963.47
2022-12-01T03:21:58.505Z,99963.19
2022-12-01T03:24:34.053Z,99965.41
2022-12-01T03:27:05.817Z,99964.84
2022-12-01T03:29:44.431Z,99955.56
2022-12-01T03:32:39.309Z,99941.09
2022-12-01T03:35:27.218Z,99952.63
2022-12-01T03:38:10.008Z,99923.22
2022-12-01T03:40:41.946Z,99939.06
2022-12-01T03:43:18.417Z,99922.22
2022-12-01T03:45:57.956Z,99891.22
2022-12-01T03:48:28.968Z,99910.72
2022-12-01T03:51:11.320Z,99916.22
2022-12-01T03:54:14.978Z,99898.00
2022-12-01T03:56:52.874Z,99892.97
2022-12-01T03:59:27.314Z,99906.31
2022-12-01T04:01:59.057Z,99902.50
2022-12-01T04:04:29.062Z,99892.03
2022-12-01T04:06:59.976Z,99891.31
2022-12-01T04:09:30.058Z,99896.06
2022-12-01T04:12:18.514Z,99888.84
2022-12-01T04:14:48.694Z,99890.69
2022-12-01T04:17:19.127Z,99881.25
2022-12-01T04:19:52.063Z,99874.00
2022-12-01T04:22:23.193Z,99885.06
2022-12-01T04:24:54.373Z,99883.06
2022-12-01T04:27:24.867Z,99875.41
2022-12-01T04:29:55.020Z,99871.81
2022-12-01T04:32:25.847Z,99872.72
2022-12-01T04:34:55.946Z,99873.25
2022-12-01T04:37:26.533Z,99867.09
2022-12-01T04:39:56.625Z,99871.47
2022-12-01T04:42:27.253Z,99873.63
2022-12-01T04:44:57.449Z,99880.16
2022-12-01T04:47:27.887Z,99882.31
2022-12-01T04:49:58.006Z,99879.38
2022-12-01T04:52:34.837Z,99866.09
2022-12-01T04:55:05.954Z,99857.09
2022-12-01T04:57:37.151Z,99861.56
2022-12-01T05:00:14.139Z,99857.44
2022-12-01T05:02:45.077Z,99860.72
2022-12-01T05:05:15.418Z,99856.66
2022-12-01T05:07:46.617Z,99853.84
2022-12-01T05:10:16.923Z,99839.78
2022-12-01T05:12:48.872Z,99846.19
2022-12-01T05:15:19.279Z,99848.69
2022-12-01T05:17:52.726Z,99850.13
2022-12-01T05:20:43.869Z,99834.16
2022-12-01T05:23:16.960Z,99805.28
2022-12-01T05:25:47.243Z,99796.63
2022-12-01T05:28:20.070Z,99817.97
2022-12-01T05:30:51.253Z,99814.38
2022-12-01T05:33:22.810Z,99809.28
2022-12-01T05:35:53.068Z,99808.00
2022-12-01T05:38:24.189Z,99813.75
2022-12-01T05:40:55.914Z,99808.56
2022-12-01T05:43:29.484Z,99789.41
2022-12-01T05:46:00.056Z,99814.06
2022-12-01T05:48:30.777Z,99809.31
2022-12-01T05:51:00.931Z,99811.44
2022-12-01T05:53:31.500Z,99797.75
2022-12-01T05:56:01.269Z,99791.84
2022-12-01T05:58:31.835Z,99786.78
2022-12-01T06:01:02.327Z,99791.25
2022-12-01T06:03:32.904Z,99783.09
2022-12-01T06:06:06.042Z,99770.50
2022-12-01T06:08:36.512Z,99791.50
2022-12-01T06:11:06.366Z,99784.69
2022-12-01T06:13:36.874Z,99787.63
2022-12-01T06:16:08.264Z,99771.66
2022-12-01T06:18:39.924Z,99769.13
2022-12-01T06:21:09.949Z,99773.59
2022-12-01T06:23:40.557Z,99779.28
2022-12-01T06:26:10.537Z,99772.69
2022-12-01T06:28:40.382Z,99780.13
2022-12-01T06:31:10.808Z,99777.13
2022-12-01T06:33:40.289Z,99778.06
2022-12-01T06:36:11.666Z,99774.19
2022-12-01T06:38:42.049Z,99768.00
2022-12-01T06:41:11.506Z,99757.16
2022-12-01T06:43:41.405Z,99756.06
2022-12-01T06:46:11.785Z,99758.97
2022-12-01T06:48:41.346Z,99757.47
2022-12-01T06:51:11.188Z,99756.50
2022-12-01T06:53:41.713Z,99751.16
2022-12-01T06:56:12.584Z,99758.13
2022-12-01T06:58:43.398Z,99755.59
2022-12-01T07:01:15.179Z,99756.97
2022-12-01T07:03:49.854Z,99758.88
2022-12-01T07:06:20.381Z,99757.53
2022-12-01T07:08:51.024Z,99760.09
2022-12-01T07:11:21.032Z,99770.63
2022-12-01T07:13:58.213Z,99759.63
2022-12-01T07:16:28.244Z,99766.06
2022-12-01T07:18:58.775Z,99753.69
2022-12-01T07:21:28.244Z,99759.75
2022-12-01T07:23:57.917Z,99747.06
2022-12-01T07:26:31.433Z,99751.91
2022-12-01T07:29:01.493Z,99761.59
2022-12-01T07:31:31.747Z,99765.84
2022-12-01T07:34:02.352Z,99772.44
2022-12-01T07:36:31.877Z,99772.44
2022-12-01T07:39:07.698Z,99779.72
2022-12-01T07:41:37.946Z,99792.75
2022-12-01T07:44:09.016Z,99792.94
2022-12-01T07:46:42.495Z,99791.16
2022-12-01T07:49:15.960Z,99796.38
2022-12-01T07:51:45.985Z,99798.22
2022-12-01T07:54:17.981Z,99792.41
2022-12-01T07:56:48.105Z,99766.31
2022-12-01T07:59:18.586Z,99797.47
2022-12-01T08:01:48.696Z,99795.66
2022-12-01T08:04:19.242Z,99802.56
2022-12-01T08:06:48.894Z,99798.03
2022-12-01T08:09:19.317Z,99802.19
2022-12-01T08:11:48.853Z,99798.78
2022-12-01T08:14:18.726Z,99798.56
2022-12-01T08:16:50.686Z,99801.50
2022-12-01T08:19:20.695Z,99806.19
2022-12-01T08:21:51.164Z,99814.84
2022-12-01T08:24:20.760Z,99825.69
2022-12-01T08:26:51.281Z,99834.34
2022-12-01T08:29:21.524Z,99839.22
2022-12-01T08:31:52.370Z,99835.44
2022-12-01T08:34:22.524Z,99842.38
2022-12-01T08:36:52.983Z,99847.59
2022-12-01T08:39:22.601Z,99844.16
2022-12-01T08:41:53.030Z,99848.78
2022-12-01T08:44:22.562Z,99850.56
2022-12-01T08:46:52.602Z,99838.59
2022-12-01T08:49:24.071Z,99841.13
2022-12-01T08:51:54.366Z,99849.81
2022-12-01T08:54:24.818Z,99861.41
2022-12-01T08:56:54.852Z,99865.50
2022-12-01T08:59:28.166Z,99873.91
2022-12-01T09:02:01.327Z,99874.06
2022-12-01T09:04:34.260Z,99877.47
2022-12-01T09:07:04.557Z,99870.94
2022-12-01T09:09:37.569Z,99863.66
2022-12-01T09:12:08.674Z,99863.78
2022-12-01T09:14:41.032Z,99864.72
2022-12-01T09:17:11.791Z,99877.88
2022-12-01T09:19:42.046Z,99884.16
2022-12-01T09:22:13.698Z,99905.28
2022-12-01T09:24:43.684Z,99900.13
2022-12-01T09:27:14.376Z,99901.97
2022-12-01T09:29:44.481Z,99907.09
2022-12-01T09:32:14.826Z,99893.56
2022-12-01T09:34:50.445Z,99903.81
2022-12-01T09:37:20.759Z,99899.34
2022-12-01T09:39:51.060Z,99899.94
2022-12-01T09:42:33.817Z,99917.88
2022-12-01T09:45:06.656Z,99910.03
2022-12-01T09:47:38.530Z,99893.91
2022-12-01T09:50:26.381Z,99914.69
2022-12-01T09:53:04.776Z,99916.78
2022-12-01T09:55:36.769Z,99927.06
2022-12-01T09:58:19.630Z,99929.22
2022-12-01T10:00:52.516Z,99923.09
2022-12-01T10:03:36.919Z,99922.56
2022-12-01T10:06:29.181Z,99925.72
2022-12-01T10:09:16.593Z,99923.63
2022-12-01T10:11:49.863Z,99932.03
2022-12-01T10:14:23.220Z,99937.34
2022-12-01T10:17:33.856Z,99935.75
2022-12-01T10:20:25.969Z,99910.44
2022-12-01T10:23:19.803Z,99940.03
2022-12-01T10:26:10.052Z,99927.59
2022-12-01T10:29:06.977Z,99951.31
2022-12-01T10:31:45.182Z,99950.91
2022-12-01T10:34:22.973Z,99956.59
2022-12-01T10:36:53.753Z,99962.16
2022-12-01T10:39:32.617Z,99962.94
2022-12-01T10:42:28.747Z,99966.81
2022-12-01T10:45:02.495Z,99965.09
2022-12-01T10:47:33.322Z,99950.97
2022-12-01T10:50:05.693Z,99971.56
2022-12-01T10:52:39.236Z,99970.53
2022-12-01T10:55:47.667Z,99965.91
2022-12-01T10:58:20.680Z,99968.03
2022-12-01T11:01:02.715Z,99966.59
2022-12-01T11:03:36.446Z,99968.25
2022-12-01T11:06:09.038Z,99970.41
2022-12-01T11:08:58.795Z,99981.81
2022-12-01T11:11:42.392Z,99977.09
2022-12-01T11:14:22.166Z,99994.75
2022-12-01T11:16:55.484Z,99987.41
2022-12-01T11:19:29.017Z,99978.91
2022-12-01T11:22:01.613Z,99979.56
2022-12-01T11:24:45.429Z,99978.75
2022-12-01T11:27:22.215Z,99978.97
2022-12-01T11:29:57.570Z,99975.69
2022-12-01T11:32:30.743Z,99971.31
2022-12-01T11:35:16.106Z,99973.44
2022-12-01T11:38:27.657Z,99978.53
2022-12-01T11:40:55.006Z,99976.09
2022-12-01T11:43:34.956Z,99973.13
2022-12-01T11:46:09.497Z,99979.66
2022-12-01T11:48:39.770Z,99977.09
2022-12-01T11:51:22.245Z,99986.41
2022-12-01T11:54:15.437Z,99973.06
2022-12-01T11:56:52.784Z,99967.25
2022-12-01T11:59:34.636Z,99975.25
2022-12-01T12:02:19.114Z,99977.50
2022-12-01T12:04:53.044Z,99976.91
2022-12-01T12:07:51.221Z,99970.72
2022-12-01T12:10:37.008Z,99969.84
2022-12-01T12:13:10.382Z,99977.53
2022-12-01T12:15:58.795Z,99983.75
2022-12-01T12:19:01.581Z,99975.28
2022-12-01T12:21:36.731Z,99981.91
2022-12-01T12:24:29.605Z,99982.16
2022-12-01T12:27:43.597Z,99972.59
2022-12-01T12:30:31.162Z,99978.16
2022-12-01T12:33:18.596Z,99975.81
2022-12-01T12:36:13.143Z,99978.63
2022-12-01T12:38:54.674Z,99974.06
2022-12-01T12:41:44.064Z,99978.56
2022-12-01T12:44:33.735Z,99970.88
2022-12-01T12:47:48.549Z,99968.13
2022-12-01T12:50:27.755Z,99971.44
2022-12-01T12:53:04.848Z,99956.84
2022-12-01T12:55:44.694Z,99965.84
2022-12-01T12:58:24.498Z,99959.59
2022-12-01T13:01:26.292Z,99961.25
2022-12-01T13:04:10.718Z,99959.50
2022-12-01T13:06:45.018Z,99952.94
2022-12-01T13:09:30.656Z,99961.50
2022-12-01T13:12:19.122Z,99957.00
2022-12-01T13:15:19.322Z,99959.34
2022-12-01T13:17:52.656Z,99963.91
2022-12-01T13:20:28.881Z,99962.38
2022-12-01T13:23:01.402Z,99964.00
2022-12-01T13:25:39.525Z,99956.63
2022-12-01T13:28:27.484Z,99955.78
2022-12-01T13:31:12.820Z,99957.41
2022-12-01T13:33:59.803Z,99936.44
2022-12-01T13:36:46.614Z,99953.63
2022-12-01T13:39:26.037Z,99955.19
2022-12-01T13:42:03.436Z,99949.34
2022-12-01T13:44:47.001Z,99949.06
2022-12-01T13:47:41.453Z,99943.81
2022-12-01T13:50:45.414Z,99929.28
2022-12-01T13:53:21.438Z,99938.44
2022-12-01T13:56:09.144Z,99941.53
2022-12-01T13:58:50.941Z,99942.75
2022-12-01T14:01:24.273Z,99931.81
2022-12-01T14:03:59.050Z,99927.25
2022-12-01T14:06:35.824Z,99922.41
2022-12-01T14:09:25.405Z,99921.47
2022-12-01T14:12:26.285Z,99910.22
2022-12-01T14:15:04.616Z,99909.28
2022-12-01T14:17:40.254Z,99908.06
2022-12-01T14:20:24.049Z,99902.84
2022-12-01T14:23:14.720Z,99901.72
2022-12-01T14:26:00.039Z,99902.03
2022-12-01T14:28:58.207Z,99899.50
2022-12-01T14:31:34.702Z,99896.00
2022-12-01T14:34:06.051Z,99900.84
2022-12-01T14:36:40.219Z,99904.53
2022-12-01T14:39:44.201Z,99907.59
2022-12-01T14:42:58.648Z,99905.78
2022-12-01T14:46:09.237Z,99896.81
2022-12-01T14:48:44.594Z,99893.28
2022-12-01T14:51:40.392Z,99888.38
2022-12-01T14:54:18.405Z,99889.84
2022-12-01T14:56:52.272Z,99864.09
2022-12-01T14:59:27.316Z,99877.81
2022-12-01T15:02:09.988Z,99878.47
2022-12-01T15:05:13.885Z,99878.69
2022-12-01T15:07:48.004Z,99862.59
2022-12-01T15:10:21.798Z,99857.84
2022-12-01T15:12:53.166Z,99849.38
2022-12-01T15:15:28.413Z,99859.56
2022-12-01T15:18:02.921Z,99856.53
2022-12-01T15:20:43.579Z,99851.97
2022-12-01T15:23:18.961Z,99843.22
2022-12-01T15:25:49.546Z,99848.25
2022-12-01T15:28:34.073Z,99831.34
2022-12-01T15:31:12.818Z,99828.94
2022-12-01T15:33:53.054Z,99819.09
2022-12-01T15:36:24.470Z,99831.88
2022-12-01T15:38:55.257Z,99833.28
2022-12-01T15:41:29.949Z,99831.59
2022-12-01T15:44:06.611Z,99843.81
2022-12-01T15:46:36.965Z,99825.66
2022-12-01T15:49:21.568Z,99842.41
2022-12-01T15:51:53.414Z,99839.22
2022-12-01T15:54:27.511Z,99832.44
2022-12-01T15:57:00.202Z,99835.97
2022-12-01T15:59:43.052Z,99840.44
2022-12-01T16:02:28.227Z,99832.44
2022-12-01T16:05:33.763Z,99839.41
2022-12-01T16:08:22.466Z,99832.78
2022-12-01T16:11:12.370Z,99828.91
2022-12-01T16:14:08.081Z,99834.31
2022-12-01T16:16:48.380Z,99831.75
2022-12-01T16:19:18.626Z,99831.34
2022-12-01T16:22:12.921Z,99842.28
2022-12-01T16:24:50.915Z,99791.88
2022-12-01T16:27:33.292Z,99853.34
2022-12-01T16:30:07.323Z,99845.47
2022-12-01T16:32:43.038Z,99843.56
2022-12-01T16:35:28.758Z,99846.00
2022-12-01T16:38:00.386Z,99842.09
2022-12-01T16:40:30.569Z,99830.81
2022-12-01T16:43:00.368Z,99842.06
2022-12-01T16:45:31.381Z,99832.69
2022-12-01T16:48:06.220Z,99838.16
2022-12-01T16:50:40.620Z,99837.34
2022-12-01T16:53:13.139Z,99848.50
2022-12-01T16:55:52.510Z,99851.16
2022-12-01T16:58:23.147Z,99848.41
2022-12-01T17:00:54.637Z,99840.56
2022-12-01T17:03:29.841Z,99840.84
2022-12-01T17:06:05.350Z,99828.75
2022-12-01T17:08:35.788Z,99830.38
2022-12-01T17:11:08.172Z,99823.78
2022-12-01T17:13:41.381Z,99821.41
2022-12-01T17:16:17.992Z,99820.69
2022-12-01T17:18:48.789Z,99822.56
2022-12-01T17:21:19.384Z,99818.47
2022-12-01T17:23:49.510Z,99819.59
2022-12-01T17:26:21.453Z,99816.59
2022-12-01T17:28:51.965Z,99814.66
2022-12-01T17:31:23.524Z,99802.22
2022-12-01T17:33:53.627Z,99806.84
2022-12-01T17:36:24.092Z,99789.72
2022-12-01T17:38:54.215Z,99775.34
2022-12-01T17:41:28.761Z,99762.88
2022-12-01T17:43:59.698Z,99751.72
2022-12-01T17:46:31.399Z,99746.44
2022-12-01T17:49:09.646Z,99748.88
2022-12-01T17:51:40.434Z,99754.50
2022-12-01T17:54:10.589Z,99774.09
2022-12-01T17:56:41.161Z,99783.66
2022-12-01T17:59:11.342Z,99802.16
2022-12-01T18:01:44.307Z,99799.28
2022-12-01T18:04:14.766Z,99797.22
2022-12-01T18:06:48.002Z,99802.00
2022-12-01T18:09:22.499Z,99792.00
2022-12-01T18:11:53.064Z,99787.94
2022-12-01T18:14:23.780Z,99789.88
2022-12-01T18:16:58.118Z,99784.34
2022-12-01T18:19:28.641Z,99792.09
2022-12-01T18:21:59.199Z,99788.34
2022-12-01T18:24:29.223Z,99776.56
2022-12-01T18:26:59.661Z,99785.94
2022-12-01T18:29:29.937Z,99783.16
2022-12-01T18:32:01.517Z,99790.13
2022-12-01T18:34:31.810Z,99793.28
2022-12-01T18:37:03.992Z,99793.34
2022-12-01T18:39:34.592Z,99778.59
2022-12-01T18:42:05.126Z,99770.91
2022-12-01T18:44:35.341Z,99757.34
2022-12-01T18:47:07.616Z,99766.81
2022-12-01T18:49:37.816Z,99780.69
2022-12-01T18:52:08.349Z,99779.50
2022-12-01T18:54:38.434Z,99776.28
2022-12-01T18:57:09.050Z,99771.75
2022-12-01T18:59:39.434Z,99766.50
2022-12-01T19:02:11.704Z,99754.06
2022-12-01T19:04:42.591Z,99755.97
2022-12-01T19:07:15.986Z,99751.91
2022-12-01T19:09:46.048Z,99760.09
2022-12-01T19:12:16.522Z,99759.50
2022-12-01T19:14:46.841Z,99749.13
2022-12-01T19:17:17.413Z,99749.59
2022-12-01T19:19:48.434Z,99747.78
2022-12-01T19:22:20.468Z,99747.75
2022-12-01T19:24:51.864Z,99745.84
2022-12-01T19:27:23.790Z,99742.63
2022-12-01T19:29:55.073Z,99742.44
2022-12-01T19:32:25.688Z,99737.25
2022-12-01T19:34:55.773Z,99734.16
2022-12-01T19:37:26.804Z,99740.50
2022-12-01T19:39:56.877Z,99743.34
2022-12-01T19:42:27.399Z,99758.16
2022-12-01T19:44:57.499Z,99765.34
2022-12-01T19:47:27.311Z,99767.75
2022-12-01T19:49:57.838Z,99770.19
2022-12-01T19:52:27.875Z,99757.72
2022-12-01T19:54:58.490Z,99757.09
2022-12-01T19:57:28.568Z,99757.19
2022-12-01T19:59:59.148Z,99761.94
2022-12-01T20:02:41.410Z,99764.69
2022-12-01T20:05:11.779Z,99759.56
2022-12-01T20:07:42.337Z,99769.06
2022-12-01T20:10:12.841Z,99758.16
2022-12-01T20:12:43.319Z,99751.91
2022-12-01T20:15:13.540Z,99744.63
2022-12-01T20:17:44.699Z,99751.47
2022-12-01T20:20:16.176Z,99745.56
2022-12-01T20:22:46.769Z,99747.63
2022-12-01T20:25:16.806Z,99749.66
2022-12-01T20:27:47.361Z,99750.28
2022-12-01T20:30:17.706Z,99746.59
2022-12-01T20:32:48.234Z,99760.66
2022-12-01T20:35:18.281Z,99762.44
2022-12-01T20:37:48.701Z,99760.06
2022-12-01T20:40:18.773Z,99759.63
2022-12-01T20:42:49.263Z,99773.44
2022-12-01T20:45:20.357Z,99771.31
2022-12-01T20:47:51.318Z,99782.38
2022-12-01T20:50:21.441Z,99797.03
2022-12-01T20:52:52.035Z,99795.00
2022-12-01T20:55:22.135Z,99787.81
2022-12-01T20:57:52.581Z,99786.84
2022-12-01T21:00:25.497Z,99794.16
2022-12-01T21:02:58.042Z,99801.47
2022-12-01T21:05:29.013Z,99811.97
2022-12-01T21:07:59.477Z,99809.19
2022-12-01T21:10:31.260Z,99814.19
2022-12-01T21:13:32.407Z,99819.63
2022-12-01T21:16:06.931Z,99826.69
2022-12-01T21:18:56.578Z,99821.91
2022-12-01T21:21:33.484Z,99825.84
2022-12-01T21:24:12.488Z,99820.72
2022-12-01T21:26:49.027Z,99791.16
2022-12-01T21:29:23.110Z,99818.91
2022-12-01T21:31:56.571Z,99820.13
2022-12-01T21:34:29.058Z,99811.97
2022-12-01T21:37:03.251Z,99812.47
2022-12-01T21:39:38.439Z,99804.56
2022-12-01T21:42:20.388Z,99820.38
2022-12-01T21:44:51.823Z,99823.47
2022-12-01T21:47:29.366Z,99821.81
2022-12-01T21:50:01.567Z,99822.25
2022-12-01T21:52:44.486Z,99824.25
2022-12-01T21:55:20.508Z,99829.53
2022-12-01T21:57:52.899Z,99818.81
2022-12-01T22:00:35.773Z,99833.81
2022-12-01T22:03:17.660Z,99822.47
2022-12-01T22:06:13.704Z,99826.75
2022-12-01T22:08:46.215Z,99836.44
2022-12-01T22:11:30.054Z,99839.78
2022-12-01T22:14:17.677Z,99855.19
2022-12-01T22:17:15.887Z,99852.19
2022-12-01T22:20:01.644Z,99860.00
2022-12-01T22:22:33.843Z,99853.78
2022-12-01T22:25:30.822Z,99832.19
2022-12-01T22:28:02.506Z,99851.78
2022-12-01T22:30:32.794Z,99857.13
2022-12-01T22:33:07.613Z,99854.09
2022-12-01T22:35:51.938Z,99853.53
2022-12-01T22:38:27.745Z,99854.50
2022-12-01T22:41:08.282Z,99846.44
2022-12-01T22:43:57.897Z,99862.13
2022-12-01T22:46:41.033Z,99857.16
2022-12-01T22:49:23.462Z,99856.75
2022-12-01T22:51:59.729Z,99870.66
2022-12-01T22:54:39.723Z,99879.50
2022-12-01T22:57:09.878Z,99882.97
2022-12-01T22:59:45.160Z,99875.97
2022-12-01T23:02:30.634Z,99873.75
2022-12-01T23:05:04.186Z,99877.56
2022-12-01T23:07:36.833Z,99878.09
2022-12-01T23:10:31.731Z,99888.22
2022-12-01T23:13:10.250Z,99880.31
2022-12-01T23:15:48.559Z,99884.47
2022-12-01T23:18:33.235Z,99891.66
2022-12-01T23:21:04.940Z,99887.28
2022-12-01T23:23:37.853Z,99888.47
2022-12-01T23:26:10.011Z,99903.81
2022-12-01T23:28:42.771Z,99913.13
2022-12-01T23:31:13.476Z,99918.31
2022-12-01T23:33:45.998Z,99922.97
2022-12-01T23:36:29.466Z,99935.25
2022-12-01T23:39:06.102Z,99937.31
2022-12-01T23:41:42.517Z,99939.63
2022-12-01T23:44:30.646Z,99952.50
2022-12-01T23:47:01.391Z,99964.44
2022-12-01T23:49:36.092Z,99965.94
2022-12-01T23:52:11.656Z,99968.88
2022-12-01T23:54:41.963Z,99971.72
2022-12-01T23:57:25.035Z,99980.19
2022-12-01T23:59:58.025Z,99981.91
